Time;durP1;ratioP1;P1;durP2;ratioP2;P2;SDS_P1;SDS_P2;PMS_P1;PMS_P2;Temp;Humidity;BMP_temperature;BMP_pressure;BME280_temperature;BME280_humidity;BME280_pressure;Samples;Min_cycle;Max_cycle;Signal;HPM_P1;HPM_P2
2022/05/27 00:00:24;;;;;;;12.57;3.30;;;;;;;14.78;100.00;101973.28;5029527;28;20098;-46
2022/05/27 00:02:50;;;;;;;10.27;3.55;;;;;;;14.80;100.00;101963.22;5016178;28;20140;-46
2022/05/27 00:05:17;;;;;;;10.63;3.67;;;;;;;14.78;100.00;101963.38;5015660;28;20032;-46
2022/05/27 00:07:43;;;;;;;11.68;3.60;;;;;;;14.74;100.00;101962.00;5016571;28;20660;-47
2022/05/27 00:10:10;;;;;;;10.07;3.67;;;;;;;14.74;100.00;101967.41;5017059;28;20040;-45
2022/05/27 00:12:36;;;;;;;8.93;3.78;;;;;;;14.70;100.00;101963.34;5015354;28;20475;-47
2022/05/27 00:15:01;;;;;;;13.63;3.78;;;;;;;14.71;100.00;101956.94;5023593;28;20328;-48
2022/05/27 00:17:27;;;;;;;11.70;3.50;;;;;;;14.70;100.00;101952.59;5019602;28;20132;-45
2022/05/27 00:19:53;;;;;;;12.93;3.58;;;;;;;14.71;100.00;101951.56;5022292;28;20056;-43
2022/05/27 00:22:19;;;;;;;12.63;3.65;;;;;;;14.68;100.00;101960.81;5015226;28;20503;-44
2022/05/27 00:24:44;;;;;;;12.80;4.20;;;;;;;14.69;100.00;101954.41;5017317;28;20025;-47
2022/05/27 00:27:10;;;;;;;12.20;3.88;;;;;;;14.63;100.00;101960.47;5016310;28;20185;-45
2022/05/27 00:29:36;;;;;;;12.98;3.72;;;;;;;14.66;100.00;101953.91;5013618;28;20032;-43
2022/05/27 00:32:03;;;;;;;11.60;4.15;;;;;;;14.65;100.00;101957.63;5016754;28;20144;-45
2022/05/27 00:34:29;;;;;;;13.93;4.22;;;;;;;14.67;100.00;101959.13;5016516;28;20472;-47
2022/05/27 00:36:54;;;;;;;12.68;3.95;;;;;;;14.67;100.00;101956.44;5025875;28;20032;-46
2022/05/27 00:39:20;;;;;;;15.90;4.20;;;;;;;14.66;100.00;101957.47;5014196;28;20028;-44
2022/05/27 00:41:45;;;;;;;11.57;4.07;;;;;;;14.63;100.00;101943.47;5025000;28;20021;-43
2022/05/27 00:44:11;;;;;;;14.68;3.95;;;;;;;14.64;100.00;101947.84;5015361;28;20025;-44
2022/05/27 00:46:40;;;;;;;15.40;4.47;;;;;;;14.64;100.00;101953.22;5014846;28;20143;-45
2022/05/27 00:49:14;;;;;;;14.40;4.78;;;;;;;14.60;100.00;101950.03;5014420;28;20060;-44
2022/05/27 00:51:47;;;;;;;17.13;4.55;;;;;;;14.58;100.00;101951.13;5015415;28;20036;-44
2022/05/27 00:54:16;;;;;;;18.10;4.78;;;;;;;14.55;100.00;101947.78;5017123;28;20038;-43
2022/05/27 00:56:45;;;;;;;18.02;4.95;;;;;;;14.46;100.00;101943.38;5027609;28;20044;-46
2022/05/27 00:59:36;;;;;;;17.38;4.90;;;;;;;14.42;100.00;101950.06;5024021;28;20029;-48
2022/05/27 01:02:02;;;;;;;18.85;5.20;;;;;;;14.28;100.00;101937.22;5025190;28;20041;-46
2022/05/27 01:04:29;;;;;;;21.50;5.18;;;;;;;14.28;100.00;101942.59;5014206;28;20026;-46
2022/05/27 01:06:54;;;;;;;13.38;5.13;;;;;;;14.22;100.00;101944.03;5015686;28;20499;-46
2022/05/27 01:09:20;;;;;;;19.95;6.00;;;;;;;14.20;100.00;101939.84;5014011;28;20100;-45
2022/05/27 01:11:59;;;;;;;20.10;6.25;;;;;;;14.22;100.00;101940.53;5016723;28;20546;-46
2022/05/27 01:14:24;;;;;;;22.40;6.15;;;;;;;14.22;100.00;101940.53;5012343;28;20040;-44
2022/05/27 01:17:09;;;;;;;17.70;5.65;;;;;;;14.20;100.00;101939.84;5024128;28;20028;-46
2022/05/27 01:22:45;;;;;;;20.20;6.78;;;;;;;14.05;100.00;101937.72;5025497;28;20323;-44
2022/05/27 01:25:46;;;;;;;17.58;6.80;;;;;;;14.03;100.00;101934.34;5015822;28;20033;-45
2022/05/27 01:28:33;;;;;;;24.80;7.00;;;;;;;13.98;100.00;101942.03;5017512;28;20515;-45
2022/05/27 01:31:12;;;;;;;22.45;6.70;;;;;;;13.94;100.00;101940.69;5015951;28;20043;-47
2022/05/27 01:34:00;;;;;;;23.67;6.65;;;;;;;13.93;100.00;101938.97;5014009;28;20079;-45
2022/05/27 01:36:38;;;;;;;21.80;6.57;;;;;;;13.88;100.00;101931.38;5014447;28;20072;-48
2022/05/27 01:39:31;;;;;;;19.85;6.93;;;;;;;13.83;100.00;101930.19;5015848;28;20013;-44
2022/05/27 01:42:14;;;;;;;20.45;6.65;;;;;;;13.77;100.00;101932.50;5025413;28;20029;-44
2022/05/27 01:45:00;;;;;;;24.00;6.50;;;;;;;13.76;100.00;101936.19;5027350;28;20029;-44
2022/05/27 01:47:44;;;;;;;21.92;7.22;;;;;;;13.78;100.00;101931.50;5017448;28;20477;-45
2022/05/27 01:50:17;;;;;;;21.85;6.93;;;;;;;13.66;100.00;101937.25;5014937;28;20029;-43
2022/05/27 01:53:02;;;;;;;20.48;7.43;;;;;;;13.60;100.00;101936.88;5015316;28;20049;-44
2022/05/27 01:55:34;;;;;;;21.70;7.30;;;;;;;13.62;100.00;101937.56;5013843;28;20570;-44
2022/05/27 01:58:10;;;;;;;22.65;7.22;;;;;;;13.58;100.00;101936.19;5013794;28;20025;-46
2022/05/27 02:00:38;;;;;;;24.00;7.32;;;;;;;13.51;100.00;101953.06;5015742;28;20089;-44
2022/05/27 02:03:19;;;;;;;28.65;7.88;;;;;;;13.52;100.00;101962.81;5025746;28;20097;-44
2022/05/27 02:06:09;;;;;;;32.05;7.75;;;;;;;13.60;100.00;101966.41;5031777;28;20045;-45
2022/05/27 02:08:51;;;;;;;16.02;5.88;;;;;;;13.54;100.00;101967.03;5022944;28;20113;-45
2022/05/27 02:11:19;;;;;;;13.98;4.25;;;;;;;13.50;100.00;101962.94;5013747;28;20033;-45
2022/05/27 02:13:53;;;;;;;9.02;2.75;;;;;;;13.39;100.00;101958.66;5014775;28;20417;-45
2022/05/27 02:16:25;;;;;;;6.43;2.63;;;;;;;13.32;100.00;101967.47;5014425;28;20049;-44
2022/05/27 02:18:59;;;;;;;10.55;2.85;;;;;;;13.23;100.00;101961.13;5014519;28;20030;-45
2022/05/27 02:21:30;;;;;;;10.75;2.92;;;;;;;13.13;100.00;101966.56;5015000;28;20094;-47
2022/05/27 02:24:03;;;;;;;8.57;2.40;;;;;;;13.07;100.00;101959.97;5023599;28;20417;-48
2022/05/27 02:26:32;;;;;;;8.70;3.00;;;;;;;12.95;100.00;101958.47;5019072;28;20098;-47
2022/05/27 02:29:10;;;;;;;8.95;3.20;;;;;;;12.77;100.00;101955.75;5026417;28;20029;-49
2022/05/27 02:31:38;;;;;;;8.70;3.72;;;;;;;12.64;100.00;101947.19;5017779;28;20571;-47
2022/05/27 02:37:14;;;;;;;10.63;3.55;;;;;;;12.61;100.00;101940.31;5019605;28;20044;-47
2022/05/27 02:39:40;;;;;;;9.38;3.90;;;;;;;12.61;100.00;101937.63;5018318;28;20443;-46
2022/05/27 02:42:31;;;;;;;11.73;4.30;;;;;;;12.64;100.00;101936.47;5019353;28;20034;-49
2022/05/27 02:45:23;;;;;;;9.27;3.72;;;;;;;12.65;100.00;101930.97;5024448;28;20115;-46
2022/05/27 02:47:52;;;;;;;14.93;4.18;;;;;;;12.65;100.00;101936.31;5019410;28;20547;-44
2022/05/27 02:50:36;;;;;;;8.35;3.80;;;;;;;12.63;100.00;101940.16;5026227;28;20037;-47
2022/05/27 02:53:19;;;;;;;9.25;3.58;;;;;;;12.61;100.00;101947.47;5017334;28;20384;-44
2022/05/27 02:56:06;;;;;;;15.27;3.97;;;;;;;12.60;100.00;101932.41;5019094;28;20540;-45
2022/05/27 02:58:32;;;;;;;13.32;4.25;;;;;;;12.62;100.00;101952.69;5015673;28;20052;-44
2022/05/27 03:00:58;;;;;;;10.10;3.83;;;;;;;12.60;100.00;101943.13;5016749;28;20458;-44
2022/05/27 03:03:23;;;;;;;12.00;3.85;;;;;;;12.61;100.00;101934.06;5017165;28;20209;-46
2022/05/27 03:06:15;;;;;;;10.65;4.15;;;;;;;12.64;100.00;101936.47;5026111;28;20025;-46
2022/05/27 03:08:46;;;;;;;;;;;;;;;12.67;100.00;101930.81;5019014;28;20487;-45
2022/05/27 03:11:17;;;;;;;9.23;3.65;;;;;;;12.70;100.00;101935.88;5029335;28;20204;-44
2022/05/27 03:14:18;;;;;;;11.50;3.83;;;;;;;12.73;100.00;101938.28;5017100;28;20095;-48
2022/05/27 03:17:02;;;;;;;;;;;;;;;12.78;100.00;101948.53;5018724;28;20407;-45
2022/05/27 03:19:54;;;;;;;14.65;5.47;;;;;;;12.80;100.00;101931.31;5016394;28;19924;-45
2022/05/27 03:22:42;;;;;;;12.35;5.43;;;;;;;12.81;100.00;101926.78;5016005;28;20022;-47
2022/05/27 03:25:33;;;;;;;11.40;5.38;;;;;;;12.83;100.00;101931.03;5017668;28;20013;-46
2022/05/27 03:27:58;;;;;;;;;;;;;;;12.86;100.00;101914.66;5017111;28;20451;-46
2022/05/27 03:30:33;;;;;;;12.73;5.00;;;;;;;12.90;100.00;101914.31;5028467;28;19924;-44
2022/05/27 03:33:16;;;;;;;9.90;4.30;;;;;;;12.93;100.00;101917.53;5017267;28;20029;-46
2022/05/27 03:35:50;;;;;;;11.30;4.63;;;;;;;12.94;100.00;101923.78;5024970;28;20304;-48
2022/05/27 03:38:19;;;;;;;11.13;4.28;;;;;;;12.97;100.00;101923.47;5024733;28;20116;-44
2022/05/27 03:40:58;;;;;;;13.13;4.28;;;;;;;12.95;100.00;101926.31;5018516;28;20056;-45
2022/05/27 03:43:25;;;;;;;11.55;4.25;;;;;;;12.94;100.00;101927.28;5016045;28;20120;-45
2022/05/27 03:45:54;;;;;;;12.00;4.35;;;;;;;13.01;100.00;101932.91;5017253;28;20056;-46
2022/05/27 03:48:21;;;;;;;14.77;4.78;;;;;;;13.03;100.00;101920.16;5016505;28;20017;-47
2022/05/27 03:50:49;;;;;;;12.02;4.38;;;;;;;13.05;100.00;101919.03;5027404;28;20139;-46
2022/05/27 03:53:14;;;;;;;12.40;4.38;;;;;;;13.04;100.00;101919.19;5016763;28;20475;-48
2022/05/27 03:55:44;;;;;;;13.52;4.00;;;;;;;13.03;100.00;101922.84;5024151;28;20057;-43
2022/05/27 03:58:14;;;;;;;7.43;3.97;;;;;;;13.02;100.00;101927.38;5033041;28;20048;-43
2022/05/27 04:00:41;;;;;;;9.65;4.22;;;;;;;13.03;100.00;101918.34;5014731;28;20025;-42
2022/05/27 04:03:08;;;;;;;10.52;4.72;;;;;;;13.02;100.00;101919.34;5017172;28;20440;-46
2022/05/27 04:05:34;;;;;;;14.63;4.43;;;;;;;13.01;100.00;101916.81;5016134;28;20306;-46
2022/05/27 04:07:59;;;;;;;14.15;4.65;;;;;;;13.06;100.00;101918.03;5016967;28;20131;-43
2022/05/27 04:10:25;;;;;;;14.40;4.25;;;;;;;13.10;100.00;101923.09;5021222;28;20062;-47
2022/05/27 04:12:50;;;;;;;10.52;4.75;;;;;;;13.13;100.00;101934.38;5022313;28;20488;-44
2022/05/27 04:15:15;;;;;;;16.52;5.30;;;;;;;13.19;100.00;101935.63;5021244;28;20132;-45
2022/05/27 04:17:42;;;;;;;12.88;4.60;;;;;;;13.27;100.00;101933.00;5029248;28;20122;-47
2022/05/27 04:20:13;;;;;;;12.75;5.03;;;;;;;13.33;100.00;101934.28;5036056;28;20056;-45
2022/05/27 04:22:39;;;;;;;13.55;5.22;;;;;;;13.35;100.00;101938.47;5034161;28;20391;-49
2022/05/27 04:25:06;;;;;;;12.77;5.07;;;;;;;13.38;100.00;101940.88;5037362;28;20017;-47
2022/05/27 04:27:32;;;;;;;16.55;5.45;;;;;;;13.41;100.00;101940.56;5035170;28;20028;-49
2022/05/27 04:29:57;;;;;;;15.00;6.05;;;;;;;13.37;100.00;101936.50;5036146;28;20024;-44
2022/05/27 04:32:25;;;;;;;12.23;6.10;;;;;;;13.46;100.00;101944.63;5036057;28;20363;-43
2022/05/27 04:34:51;;;;;;;19.55;7.25;;;;;;;13.45;100.00;101937.59;5029680;28;21001;-48
2022/05/27 04:37:17;;;;;;;15.27;6.90;;;;;;;13.48;100.00;101938.13;5021602;28;20372;-46
2022/05/27 04:39:43;;;;;;;14.43;6.82;;;;;;;13.52;100.00;101950.22;5021321;28;20029;-46
2022/05/27 04:42:09;;;;;;;22.95;7.97;;;;;;;13.58;100.00;101944.25;5023600;28;20017;-45
2022/05/27 04:44:34;;;;;;;27.23;8.10;;;;;;;13.66;100.00;101946.13;5014854;28;20549;-46
2022/05/27 04:47:00;;;;;;;22.67;8.60;;;;;;;13.65;100.00;101947.16;5015281;28;20037;-44
2022/05/27 04:52:09;;;;;;;19.67;8.60;;;;;;;13.77;100.00;101950.44;5016214;28;20420;-43
2022/05/27 04:54:35;;;;;;;22.25;9.73;;;;;;;13.85;100.00;101949.66;5018097;28;20026;-45
2022/05/27 04:57:00;;;;;;;30.10;9.60;;;;;;;13.89;100.00;101951.88;5025309;28;20140;-45
2022/05/27 04:59:26;;;;;;;34.70;9.32;;;;;;;13.94;100.00;101949.56;5013950;28;20057;-47
2022/05/27 05:01:51;;;;;;;25.77;8.77;;;;;;;14.02;100.00;101942.56;5026324;28;20091;-45
2022/05/27 05:04:17;;;;;;;27.33;9.55;;;;;;;14.14;100.00;101949.41;5014902;28;20037;-45
2022/05/27 05:06:43;;;;;;;28.42;9.30;;;;;;;14.20;100.00;101950.59;5016150;28;20067;-47
2022/05/27 05:09:09;;;;;;;24.90;9.20;;;;;;;14.24;100.00;101963.56;5016048;28;20407;-44
2022/05/27 05:11:34;;;;;;;32.50;9.23;;;;;;;14.25;100.00;101957.16;5015274;28;20396;-44
2022/05/27 05:14:00;;;;;;;31.35;9.70;;;;;;;14.25;100.00;101961.72;5014832;28;20024;-44
2022/05/27 05:16:25;;;;;;;23.88;9.00;;;;;;;14.24;100.00;101962.69;5025309;28;20467;-47
2022/05/27 05:18:51;;;;;;;32.75;9.48;;;;;;;14.22;100.00;101960.16;5014939;28;20460;-43
2022/05/27 05:21:17;;;;;;;27.38;7.90;;;;;;;14.23;100.00;101959.19;5025190;28;20143;-46
2022/05/27 05:23:42;;;;;;;23.45;7.50;;;;;;;14.22;100.00;101962.03;5016450;28;20018;-44
2022/05/27 05:26:08;;;;;;;28.75;6.93;;;;;;;14.20;100.00;101969.41;5015091;28;20103;-48
2022/05/27 05:28:33;;;;;;;28.65;7.20;;;;;;;14.22;100.00;101973.59;5014528;28;20447;-48
2022/05/27 05:30:59;;;;;;;23.98;6.38;;;;;;;14.28;100.00;101969.47;5016365;28;20030;-49
2022/05/27 05:33:24;;;;;;;22.02;6.47;;;;;;;14.23;100.00;101978.00;5028547;28;20027;-46
2022/05/27 05:35:49;;;;;;;23.10;6.15;;;;;;;14.14;100.00;101981.63;5035869;28;20367;-45
2022/05/27 05:38:15;;;;;;;17.73;5.05;;;;;;;14.07;100.00;101989.47;5033704;28;20021;-48
2022/05/27 05:40:40;;;;;;;20.63;5.10;;;;;;;14.05;100.00;101991.44;5035376;28;20452;-46
2022/05/27 05:43:06;;;;;;;18.67;5.53;;;;;;;14.07;100.00;101997.53;5034458;28;20187;-50
2022/05/27 05:45:31;;;;;;;21.33;5.03;;;;;;;14.07;100.00;101994.84;5034725;28;20543;-45
2022/05/27 05:47:57;;;;;;;20.38;4.60;;;;;;;14.13;100.00;101999.56;5034943;28;20101;-46
2022/05/27 05:50:22;;;;;;;17.88;4.47;;;;;;;14.21;100.00;101996.13;5033317;28;20024;-47
2022/05/27 05:52:48;;;;;;;22.88;4.78;;;;;;;14.26;100.00;102006.41;5033148;28;20049;-45
2022/05/27 05:55:15;;;;;;;19.35;4.28;;;;;;;14.26;100.00;101996.50;5035771;28;20020;-44
2022/05/27 05:57:43;;;;;;;17.73;4.28;;;;;;;14.21;100.00;101998.81;5031536;28;20082;-43
2022/05/27 06:00:15;;;;;;;19.67;3.92;;;;;;;14.18;100.00;101997.25;5033131;28;20492;-45
2022/05/27 06:02:40;;;;;;;15.00;3.58;;;;;;;14.15;100.00;102008.34;5034450;28;20028;-44
2022/05/27 06:05:06;;;;;;;17.02;3.47;;;;;;;14.17;100.00;102002.78;5033808;28;20028;-46
2022/05/27 06:07:32;;;;;;;14.18;3.00;;;;;;;14.22;100.00;102005.84;5034134;28;20064;-46
2022/05/27 06:09:57;;;;;;;19.48;3.50;;;;;;;14.29;100.00;102015.00;5035376;28;20416;-49
2022/05/27 06:12:24;;;;;;;12.75;3.30;;;;;;;14.33;100.00;102008.28;5033629;28;20035;-45
2022/05/27 06:14:50;;;;;;;16.27;3.35;;;;;;;14.39;100.00;102009.50;5035680;28;20108;-44
2022/05/27 06:17:16;;;;;;;11.40;2.95;;;;;;;14.36;100.00;102005.28;5032737;28;20089;-45
2022/05/27 06:19:41;;;;;;;12.90;3.58;;;;;;;14.34;100.00;102006.44;5033975;28;20053;-47
2022/05/27 06:22:07;;;;;;;12.43;3.20;;;;;;;14.44;100.00;102009.88;5033753;28;20433;-46
2022/05/27 06:24:33;;;;;;;19.45;3.55;;;;;;;14.46;100.00;102018.63;5034741;28;20025;-44
2022/05/27 06:26:58;;;;;;;15.95;4.05;;;;;;;14.46;100.00;102023.16;5035253;28;20029;-45
2022/05/27 06:34:52;;;;;;;15.52;2.85;;;;;;;14.84;100.00;102021.06;5034208;28;20275;-44
2022/05/27 06:37:20;;;;;;;15.80;2.80;;;;;;;14.90;100.00;102020.41;5033373;28;20025;-44
2022/05/27 06:39:46;;;;;;;15.85;2.90;;;;;;;14.92;100.00;102016.56;5033688;28;20370;-46
2022/05/27 06:42:14;;;;;;;12.82;2.92;;;;;;;15.02;100.00;102015.59;5035407;28;20539;-45
2022/05/27 06:44:40;;;;;;;19.55;2.85;;;;;;;15.06;100.00;102015.09;5031635;28;20049;-49
2022/05/27 06:47:06;;;;;;;18.05;2.80;;;;;;;15.13;100.00;102011.78;5034288;28;20102;-44
2022/05/27 06:49:32;;;;;;;12.35;2.17;;;;;;;15.22;100.00;102021.56;5032905;28;20029;-45
2022/05/27 06:51:57;;;;;;;14.70;3.15;;;;;;;15.34;100.00;102024.78;5034140;28;20048;-44
2022/05/27 06:54:22;;;;;;;8.30;2.30;;;;;;;15.39;100.00;102027.84;5033848;28;20036;-43
2022/05/27 06:56:50;;;;;;;14.40;2.28;;;;;;;15.35;100.00;102021.09;5035116;28;20467;-46
2022/05/27 06:59:16;;;;;;;15.88;2.80;;;;;;;15.38;100.00;102027.00;5031656;28;20086;-45
2022/05/27 07:01:43;;;;;;;14.27;2.70;;;;;;;15.30;100.00;102025.09;5034265;28;20057;-48
2022/05/27 07:04:09;;;;;;;15.77;2.40;;;;;;;15.54;100.00;102028.88;5032668;28;20075;-44
2022/05/27 07:06:45;;;;;;;14.45;2.67;;;;;;;15.69;100.00;102028.25;5014406;28;20056;-46
2022/05/27 07:09:12;;;;;;;13.93;2.53;;;;;;;15.57;100.00;102030.41;5024970;28;20029;-45
2022/05/27 07:11:40;;;;;;;13.02;2.40;;;;;;;15.35;100.00;102031.88;5024952;28;20472;-47
2022/05/27 07:14:05;;;;;;;10.65;2.30;;;;;;;15.32;100.00;102038.41;5016708;28;20471;-47
2022/05/27 07:16:31;;;;;;;12.90;2.38;;;;;;;15.34;99.78;102036.38;5016419;28;20232;-47
2022/05/27 07:18:56;;;;;;;15.25;2.83;;;;;;;15.34;100.00;102031.00;5016962;28;20159;-48
2022/05/27 07:21:22;;;;;;;10.75;2.53;;;;;;;15.36;100.00;102037.09;5017620;28;20029;-47
2022/05/27 07:23:48;;;;;;;18.20;2.33;;;;;;;15.37;100.00;102032.53;5018079;28;20417;-48
2022/05/27 07:26:13;;;;;;;14.70;2.67;;;;;;;15.44;100.00;102037.13;5018046;28;20128;-45
2022/05/27 07:28:38;;;;;;;10.00;2.30;;;;;;;15.70;100.00;102036.16;5016669;28;20033;-44
2022/05/27 07:31:04;;;;;;;11.45;2.63;;;;;;;16.01;100.00;102038.25;5018427;28;20102;-44
2022/05/27 07:33:29;;;;;;;12.98;2.78;;;;;;;16.01;100.00;102049.03;5014909;28;20033;-46
2022/05/27 07:35:55;;;;;;;12.23;2.83;;;;;;;16.19;99.25;102048.84;5016686;28;20112;-45
2022/05/27 07:38:21;;;;;;;13.55;2.88;;;;;;;16.35;98.65;102048.84;5027453;28;20021;-46
2022/05/27 07:40:46;;;;;;;10.27;2.22;;;;;;;16.36;93.53;102049.69;5038196;28;20041;-45
2022/05/27 07:43:12;;;;;;;13.70;2.72;;;;;;;16.35;93.40;102051.53;5036200;28;20021;-45
2022/05/27 07:45:40;;;;;;;13.80;2.85;;;;;;;16.25;89.82;102055.44;5035772;28;20482;-44
2022/05/27 07:48:06;;;;;;;12.63;2.30;;;;;;;16.25;91.93;102063.50;5035437;28;20600;-50
2022/05/27 07:50:31;;;;;;;13.80;2.88;;;;;;;16.40;93.50;102061.81;5034302;28;20033;-46
2022/05/27 07:52:57;;;;;;;11.75;2.47;;;;;;;16.72;95.95;102055.53;5035922;28;20037;-43
2022/05/27 07:55:22;;;;;;;15.73;2.53;;;;;;;16.69;96.06;102063.13;5035817;28;20021;-46
2022/05/27 07:57:48;;;;;;;14.88;2.80;;;;;;;16.37;94.49;102071.06;5033292;28;20029;-47
2022/05/27 08:00:17;;;;;;;16.35;2.63;;;;;;;16.20;93.59;102059.47;5036893;28;20028;-47
2022/05/27 08:02:42;;;;;;;16.17;2.70;;;;;;;16.06;92.14;102067.41;5035324;28;20511;-45
2022/05/27 08:05:10;;;;;;;13.02;2.78;;;;;;;15.87;93.25;102065.84;5035242;28;20045;-44
2022/05/27 08:07:35;;;;;;;15.60;2.65;;;;;;;16.02;93.66;102061.47;5035448;28;20032;-43
2022/05/27 08:10:00;;;;;;;19.55;2.85;;;;;;;16.31;94.06;102063.69;5037236;28;20685;-45
2022/05/27 08:12:26;;;;;;;17.30;2.83;;;;;;;16.57;90.21;102068.03;5035303;28;20040;-45
2022/05/27 08:14:51;;;;;;;10.70;2.58;;;;;;;16.65;91.16;102076.13;5036850;28;20033;-43
2022/05/27 08:17:16;;;;;;;14.50;2.95;;;;;;;16.83;88.75;102072.38;5017710;28;20037;-45
2022/05/27 08:19:42;;;;;;;17.17;3.10;;;;;;;16.93;85.57;102073.06;5035089;28;20582;-45
2022/05/27 08:22:07;;;;;;;17.77;2.97;;;;;;;17.11;87.45;102072.84;5032296;28;20033;-46
2022/05/27 08:24:33;;;;;;;15.35;2.47;;;;;;;17.48;82.92;102074.88;5034685;28;20021;-44
2022/05/27 08:26:58;;;;;;;13.70;2.65;;;;;;;17.17;82.72;102076.69;5025488;28;20074;-48
2022/05/27 08:29:25;;;;;;;16.17;2.88;;;;;;;16.76;82.37;102081.13;5014637;28;20034;-47
2022/05/27 08:31:50;;;;;;;16.95;3.00;;;;;;;16.46;87.54;102081.88;5036373;28;20055;-48
2022/05/27 08:39:48;;;;;;;15.35;2.30;;;;;;;16.42;89.92;102089.44;5037189;28;20098;-42
2022/05/27 08:42:39;;;;;;;12.30;2.53;;;;;;;16.79;88.49;102080.81;5036825;28;20033;-45
2022/05/27 08:45:11;;;;;;;18.17;2.97;;;;;;;17.03;86.34;102081.78;5036524;28;20051;-43
2022/05/27 08:47:45;;;;;;;11.52;2.55;;;;;;;17.39;84.83;102085.88;5034943;28;20029;-46
2022/05/27 08:50:19;;;;;;;14.40;2.78;;;;;;;17.57;81.41;102080.22;5036773;28;20131;-48
2022/05/27 08:52:59;;;;;;;13.38;3.00;;;;;;;17.45;81.01;102086.00;5034275;28;20037;-46
2022/05/27 09:01:06;;;;;;;18.17;3.22;;;;;;;16.77;78.91;102098.19;5036605;28;20416;-47
2022/05/27 09:03:43;;;;;;;18.08;3.25;;;;;;;17.04;78.50;102096.97;5034046;28;20089;-47
2022/05/27 09:06:09;;;;;;;16.20;2.97;;;;;;;17.33;78.08;102090.13;5032027;28;20395;-47
2022/05/27 09:08:35;;;;;;;16.23;2.95;;;;;;;17.41;74.67;102087.38;5034993;28;20076;-45
2022/05/27 09:11:35;;;;;;;14.82;2.90;;;;;;;17.64;76.34;102097.41;5033576;28;20390;-45
2022/05/27 09:14:15;;;;;;;25.77;3.42;;;;;;;17.49;73.57;102103.53;5034797;28;20020;-46
2022/05/27 09:16:52;;;;;;;18.67;4.18;;;;;;;17.66;76.95;102101.59;5032825;28;20116;-46
2022/05/27 09:19:33;;;;;;;16.48;3.28;;;;;;;17.58;75.20;102104.34;5031504;28;20020;-47
2022/05/27 09:22:25;;;;;;;10.55;2.80;;;;;;;17.49;72.45;102106.25;5027865;28;20089;-48
2022/05/27 09:25:18;;;;;;;16.23;2.92;;;;;;;17.68;73.10;102106.81;5015872;28;20476;-47
2022/05/27 09:27:57;;;;;;;15.40;3.40;;;;;;;17.52;73.43;102108.59;5031567;28;20329;-46
2022/05/27 09:30:23;;;;;;;21.77;3.28;;;;;;;17.15;70.92;102111.94;5033824;28;20021;-47
2022/05/27 09:32:54;;;;;;;15.32;2.83;;;;;;;17.06;74.94;102113.00;5034081;28;20138;-48
2022/05/27 09:35:29;;;;;;;18.02;3.40;;;;;;;17.43;71.56;102106.09;5033972;28;20356;-45
2022/05/27 09:38:01;;;;;;;17.40;3.60;;;;;;;17.77;70.78;102123.81;5034310;28;20108;-45
2022/05/27 09:41:10;;;;;;;15.07;2.95;;;;;;;18.03;74.75;102129.78;5034416;28;20392;-47
2022/05/27 09:43:56;;;;;;;19.75;3.17;;;;;;;17.84;71.47;102125.66;4932116;29;20043;-44
2022/05/27 09:46:30;;;;;;;16.45;3.00;;;;;;;17.46;72.56;102130.88;5026258;28;20751;-45
2022/05/27 09:48:57;;;;;;;14.60;3.10;;;;;;;17.52;72.25;102134.78;5034108;28;20118;-45
2022/05/27 09:51:24;;;;;;;16.52;2.70;;;;;;;17.62;74.21;102134.56;5034232;28;20455;-45
2022/05/27 09:53:53;;;;;;;14.50;2.88;;;;;;;18.03;73.28;102132.50;5032932;28;20417;-43
2022/05/27 09:56:54;;;;;;;12.77;2.72;;;;;;;18.05;66.76;102126.91;5034149;28;20066;-47
2022/05/27 09:59:36;;;;;;;14.75;3.25;;;;;;;18.04;70.16;102127.91;5032734;28;20502;-45
2022/05/27 10:02:20;;;;;;;16.67;2.85;;;;;;;17.57;66.75;102126.97;5033618;28;20459;-47
2022/05/27 10:05:05;;;;;;;11.02;2.58;;;;;;;17.56;66.02;102138.78;5032507;28;20020;-45
2022/05/27 10:07:36;;;;;;;20.42;3.08;;;;;;;17.59;63.01;102143.03;5030782;28;20374;-47
2022/05/27 10:10:35;;;;;;;12.65;2.90;;;;;;;17.98;62.27;102132.19;5035229;28;20108;-47
2022/05/27 10:13:30;;;;;;;12.35;2.80;;;;;;;18.08;60.46;102137.38;5032811;28;20074;-48
2022/05/27 10:16:04;;;;;;;17.17;2.78;;;;;;;18.32;58.53;102149.88;5035067;28;20514;-47
2022/05/27 10:18:29;;;;;;;18.65;3.25;;;;;;;18.26;59.57;102134.34;5032951;28;20654;-46
2022/05/27 10:21:03;;;;;;;14.88;3.10;;;;;;;18.31;62.82;102134.66;5033886;28;20031;-48
2022/05/27 10:23:33;;;;;;;15.30;2.95;;;;;;;18.10;61.36;102145.31;5031977;28;20483;-47
2022/05/27 10:26:25;;;;;;;19.35;3.30;;;;;;;18.06;62.90;102134.84;5034572;28;20037;-43
2022/05/27 10:29:07;;;;;;;16.52;3.05;;;;;;;17.95;61.09;102126.31;5032620;28;20025;-46
2022/05/27 10:31:34;;;;;;;14.90;3.05;;;;;;;18.25;62.72;102135.38;5034684;28;20495;-47
2022/05/27 10:34:00;;;;;;;20.30;3.83;;;;;;;18.31;62.15;102139.22;5033143;28;20025;-49
2022/05/27 10:36:43;;;;;;;14.13;2.90;;;;;;;18.09;60.59;102139.03;5033724;28;20056;-47
2022/05/27 10:39:28;;;;;;;13.90;3.25;;;;;;;17.84;56.13;102143.75;5033881;28;20136;-47
2022/05/27 10:42:07;;;;;;;13.18;3.25;;;;;;;17.91;58.11;102135.78;5034383;28;20111;-47
2022/05/27 10:44:47;;;;;;;16.17;2.90;;;;;;;17.88;62.40;102140.50;5031825;28;20021;-47
2022/05/27 10:47:51;;;;;;;15.87;3.33;;;;;;;17.64;63.96;102143.31;5036508;28;20021;-46
2022/05/27 10:50:40;;;;;;;15.52;3.53;;;;;;;17.43;63.95;102133.09;5036956;28;20029;-46
2022/05/27 10:53:29;;;;;;;14.23;3.35;;;;;;;17.70;61.15;102145.31;5037372;28;20534;-45
2022/05/27 10:56:08;;;;;;;17.05;2.90;;;;;;;17.81;59.22;102135.97;5017465;28;20049;-49
2022/05/27 11:04:25;;;;;;;16.70;3.38;;;;;;;18.23;56.01;102140.97;5016689;28;20033;-47
2022/05/27 11:07:18;;;;;;;19.60;2.80;;;;;;;18.04;53.89;102157.66;5037168;28;20036;-46
2022/05/27 11:09:52;;;;;;;15.10;3.40;;;;;;;17.86;58.76;102144.41;5035157;28;20267;-44
2022/05/27 11:15:39;;;;;;;12.05;2.72;;;;;;;17.86;59.67;102156.06;5036376;28;20642;-45
2022/05/27 11:18:32;;;;;;;12.05;2.90;;;;;;;17.29;57.75;102157.16;5033946;28;20039;-45
2022/05/27 11:21:32;;;;;;;13.95;2.60;;;;;;;16.96;56.25;102148.28;5035926;28;20021;-44
2022/05/27 11:24:15;;;;;;;11.52;2.67;;;;;;;17.21;54.19;102156.28;5033950;28;20570;-44
2022/05/27 11:27:06;;;;;;;17.90;2.88;;;;;;;17.40;56.81;102157.78;5035530;28;20021;-48
2022/05/27 11:29:34;;;;;;;13.50;2.75;;;;;;;17.44;54.19;102154.53;5034669;28;20107;-48
2022/05/27 11:32:11;;;;;;;12.40;2.33;;;;;;;17.89;57.56;102153.03;5034495;28;20048;-44
2022/05/27 11:34:42;;;;;;;17.13;2.85;;;;;;;17.61;55.56;102158.00;5037366;28;20297;-44
2022/05/27 11:37:30;;;;;;;14.93;2.83;;;;;;;17.61;52.57;102158.00;5035629;28;20067;-46
2022/05/27 11:40:40;;;;;;;16.33;2.80;;;;;;;17.51;55.95;102174.47;5036209;28;20147;-45
2022/05/27 11:43:25;;;;;;;16.10;3.15;;;;;;;17.66;54.75;102171.00;5006951;28;20721;-44
2022/05/27 11:46:18;;;;;;;23.27;3.17;;;;;;;17.95;58.54;102170.38;5035155;28;20029;-46
2022/05/27 11:48:49;;;;;;;15.13;2.58;;;;;;;18.27;51.33;102176.59;5016022;28;20343;-45
2022/05/27 11:51:30;;;;;;;11.52;2.90;;;;;;;18.30;55.37;102178.13;5017527;28;20105;-45
2022/05/27 11:54:19;;;;;;;7.70;2.30;;;;;;;18.49;52.97;102183.03;5016367;28;20049;-45
2022/05/27 11:56:57;;;;;;;10.60;2.55;;;;;;;17.86;53.52;102180.41;5016687;28;20613;-47
2022/05/27 11:59:33;;;;;;;16.70;3.05;;;;;;;18.01;53.35;102166.16;5024146;28;20088;-44
2022/05/27 12:02:13;;;;;;;13.70;2.60;;;;;;;17.90;53.19;102175.47;5034020;28;20379;-46
2022/05/27 12:04:49;;;;;;;13.27;2.67;;;;;;;17.61;47.39;102170.69;5032028;28;20024;-45
2022/05/27 12:07:27;;;;;;;15.10;2.58;;;;;;;17.89;49.95;102169.25;5016650;28;20025;-48
2022/05/27 12:10:13;;;;;;;12.32;2.70;;;;;;;18.31;50.74;102169.81;5023270;28;20452;-44
2022/05/27 12:12:49;;;;;;;19.23;3.58;;;;;;;18.33;50.28;102164.22;5036154;28;20033;-44